Juticalpa, Honduras
Current Conditions -  °F | °C
As of 4:00 PM on Sunday 25 Jan 2015 (Local Time) from MHRO Reporting Station
Overcast Overcast  
Wind Chill: 77°   Ceiling: 2000
Heat Index: 79°   Visibility: 6mi
Dew Point: 64°   Wind: 8mph
Humidity: 65%   Direction: 300°WNW
Pressure: 29.97"   Gusts: NA
Location:  16.4°N, 86.22°W
Report Text: MHRO 252200Z 30007KT 9999 BKN020 OVC070 25/18 Q1015 A2997 NOSIG
Loading
Personal Weather Stations






























Interactive Weather Map New forecast layout! Learn more

10-Day Weather Forecast

Advertisements
Track Severe Weather on mobile